Estación Meteorológica Peña el Pijo (Robertgarden) [ 07/19/24 12:10:52 CEST ]

Fecha Hora Presion(HPa) Temp (°C) Humedad % Rocio (°C) Viento ( m/s) Direccion Lluvia 1Hora(mm) Lluvia 24H(mm) LLuvia Total(mm)
2011-Jun-06 01:01:12 1003.600 12.7 74 8.2         104.11
2011-Jun-06 02:01:13 1003.500 12.8 74 8.3         104.11
2011-Jun-06 03:01:43 1003.200 13.9 70 8.5         104.11
2011-Jun-06 04:03:12 1002.700 13.9 71 8.7         104.11
2011-Jun-06 05:01:16 1002.700 12.9 74 8.4         104.11
2011-Jun-06 06:01:14 1002.600 11.8 77 7.9         104.11
2011-Jun-06 07:01:12 1002.200 11.6 80 8.3         104.11
2011-Jun-06 08:01:14 1002.600 13.1 80 9.7         104.11
2011-Jun-06 09:01:15 1002.700 13.1 82 10.1         104.11
2011-Jun-06 10:01:13 1003.100 12.9 85 10.4         104.11
2011-Jun-06 11:01:18 1003.200 14.8 82 11.8       0.51 104.63
2011-Jun-06 12:01:22 1003.700 14.6 79 11.0       0.51 104.63
2011-Jun-06 13:01:12 1003.700 13.9 85 11.4     2.07 3.10 107.22
2011-Jun-06 14:01:14 1003.400 16.4 80 13.0       3.10 107.22
2011-Jun-06 15:01:16 1002.600 21.2 61 13.4       3.10 107.22
2011-Jun-06 16:01:12 1003.100 15.5 73 10.7     0.51 3.62 107.74
2011-Jun-06 17:01:12 1002.500 15.1 72 10.1     0.51 4.14 108.26
2011-Jun-06 18:01:16 1002.600 16.1 67 10.0       4.14 108.26
2011-Jun-06 19:01:13 1002.600 15.5 65 8.9       4.14 108.26
2011-Jun-06 20:01:16 1003.100 14.4 68 8.6       4.14 108.26
2011-Jun-06 21:01:14 1003.500 12.5 74 8.0       4.14 108.26
2011-Jun-06 22:01:12 1003.300 11.7 74 7.2       4.14 108.26
2011-Jun-06 23:01:12 1003.600 11.2 76 7.1       4.14 108.26

Temperatura Máxima:21°    Temperatura Mínima:11°
Presión Máxima:1003.700 Hpa    Presión Mínima:1002.200 Hpa


Volver